gordon.dewis.ca - Random musings from Gordon

Subscribe

Dragonboating this evening could be exciting

July 13, 2016 @ 17:22 By: gordon Category: Weather

Lots of exciting weather this afternoon and into the evening:

TAF CYOW 132038Z 1321/1418 20012G22KT P6SM FEW050 BKN220 TEMPO
1321/1322 VRB15G25KT 2SM +TSRA BKN060CB PROB30 1322/1324
VRB15G25KT 2SM +TSRA BKN060CB
FM140000 21010KT P6SM FEW100
FM140900 18008KT P6SM BKN050 BKN200
FM141200 20010KT P6SM -SHRA SCT020 BKN050
FM141500 21012G22KT 5SM -SHRA BR BKN020 PROB30 1415/1418
VRB15G25KT 2SM +TSRA BR SCT007 BKN030CB
RMK NXT FCST BY 140000Z=

In a nutshell this evening from now’ish until about 8pm, heavy thunderstorms with big gusty winds. And then tomorrow from about 8am it looks like we’re in for more wind and rain, with possibly some thunderstorms over the lunch hour.

Leave a Reply

CAPTCHA
*